createdAt,value
2023-03-18T00:02:53.780Z,100808.84
2023-03-18T00:06:04.012Z,100807.88
2023-03-18T00:09:06.483Z,100824.41
2023-03-18T00:12:08.844Z,100816.13
2023-03-18T00:15:14.320Z,100821.69
2023-03-18T00:18:16.806Z,100814.00
2023-03-18T00:21:19.487Z,100812.03
2023-03-18T00:24:22.078Z,100816.41
2023-03-18T00:27:24.395Z,100812.56
2023-03-18T00:30:26.670Z,100821.78
2023-03-18T00:33:28.962Z,100817.88
2023-03-18T00:36:32.474Z,100812.03
2023-03-18T00:39:37.554Z,100806.50
2023-03-18T00:42:47.485Z,100785.50
2023-03-18T00:45:51.258Z,100800.31
2023-03-18T00:48:56.587Z,100788.16
2023-03-18T00:51:59.308Z,100780.97
2023-03-18T00:55:02.112Z,100793.47
2023-03-18T00:58:04.532Z,100783.53
2023-03-18T01:01:08.472Z,100784.59
2023-03-18T01:04:11.560Z,100793.72
2023-03-18T01:07:14.033Z,100780.28
2023-03-18T01:10:17.409Z,100775.09
2023-03-18T01:13:19.926Z,100763.94
2023-03-18T01:16:22.887Z,100759.84
2023-03-18T01:19:26.773Z,100770.19
2023-03-18T01:22:29.501Z,100740.25
2023-03-18T01:25:32.731Z,100761.72
2023-03-18T01:28:35.122Z,100758.84
2023-03-18T01:31:38.525Z,100749.53
2023-03-18T01:34:47.096Z,100747.91
2023-03-18T01:37:49.785Z,100736.75
2023-03-18T01:40:54.679Z,100753.81
2023-03-18T01:43:57.863Z,100756.44
2023-03-18T01:47:00.545Z,100755.16
2023-03-18T01:50:04.921Z,100750.03
2023-03-18T01:53:11.691Z,100758.75
2023-03-18T01:56:14.235Z,100771.00
2023-03-18T01:59:17.291Z,100769.50
2023-03-18T02:02:20.917Z,100763.53
2023-03-18T02:05:27.738Z,100769.09
2023-03-18T02:08:30.310Z,100765.38
2023-03-18T02:11:38.492Z,100768.47
2023-03-18T02:14:41.365Z,100771.63
2023-03-18T02:17:47.681Z,100770.78
2023-03-18T02:21:07.492Z,100767.47
2023-03-18T02:24:40.258Z,100761.91
2023-03-18T02:27:55.164Z,100759.81
2023-03-18T02:31:03.554Z,100766.84
2023-03-18T02:34:10.470Z,100759.22
2023-03-18T02:37:14.082Z,100763.53
2023-03-18T02:40:34.453Z,100773.69
2023-03-18T02:43:40.722Z,100768.31
2023-03-18T02:47:04.255Z,100753.81
2023-03-18T02:50:06.825Z,100770.41
2023-03-18T02:53:12.738Z,100771.19
2023-03-18T02:56:16.162Z,100764.56
2023-03-18T02:59:20.065Z,100755.06
2023-03-18T03:02:22.527Z,100763.13
2023-03-18T03:05:25.392Z,100763.13
2023-03-18T03:08:29.434Z,100755.25
2023-03-18T03:11:32.553Z,100759.00
2023-03-18T03:14:43.430Z,100754.25
2023-03-18T03:17:46.077Z,100755.88
2023-03-18T03:20:49.043Z,100751.53
2023-03-18T03:23:52.432Z,100752.38
2023-03-18T03:26:54.746Z,100763.16
2023-03-18T03:29:57.409Z,100758.56
2023-03-18T03:33:01.560Z,100760.84
2023-03-18T03:36:04.136Z,100735.66
2023-03-18T03:39:07.408Z,100748.25
2023-03-18T03:42:11.397Z,100752.59
2023-03-18T03:45:15.983Z,100756.72
2023-03-18T03:48:18.827Z,100760.22
2023-03-18T03:51:22.349Z,100755.47
2023-03-18T03:54:25.817Z,100762.28
2023-03-18T03:57:28.591Z,100753.00
2023-03-18T04:00:31.513Z,100742.03
2023-03-18T04:03:34.260Z,100739.97
2023-03-18T04:06:39.005Z,100741.00
2023-03-18T04:09:41.726Z,100746.16
2023-03-18T04:12:46.084Z,100743.25
2023-03-18T04:15:48.693Z,100741.84
2023-03-18T04:18:54.496Z,100737.47
2023-03-18T04:21:58.857Z,100744.50
2023-03-18T04:25:01.891Z,100743.88
2023-03-18T04:28:04.877Z,100738.50
2023-03-18T04:31:07.637Z,100739.94
2023-03-18T04:34:09.968Z,100736.47
2023-03-18T04:37:14.605Z,100733.56
2023-03-18T04:40:20.254Z,100730.88
2023-03-18T04:43:22.987Z,100705.44
2023-03-18T04:46:30.189Z,100722.59
2023-03-18T04:49:32.968Z,100717.00
2023-03-18T04:52:40.353Z,100730.03
2023-03-18T04:55:45.148Z,100715.78
2023-03-18T04:58:51.305Z,100718.91
2023-03-18T05:01:58.135Z,100705.00
2023-03-18T05:05:01.425Z,100712.44
2023-03-18T05:08:07.862Z,100708.13
2023-03-18T05:11:10.908Z,100722.16
2023-03-18T05:14:13.950Z,100728.38
2023-03-18T05:17:20.635Z,100718.66
2023-03-18T05:20:31.208Z,100712.03
2023-03-18T05:23:35.000Z,100715.97
2023-03-18T05:26:38.948Z,100710.34
2023-03-18T05:29:43.162Z,100727.31
2023-03-18T05:32:50.343Z,100721.50
2023-03-18T05:35:55.560Z,100713.66
2023-03-18T05:39:03.929Z,100717.75
2023-03-18T05:42:07.044Z,100727.47
2023-03-18T05:45:09.760Z,100726.03
2023-03-18T05:48:21.838Z,100712.91
2023-03-18T05:51:28.550Z,100727.19
2023-03-18T05:54:32.128Z,100715.06
2023-03-18T05:57:34.459Z,100712.50
2023-03-18T06:00:41.710Z,100713.88
2023-03-18T06:03:45.491Z,100709.31
2023-03-18T06:06:48.608Z,100703.84
2023-03-18T06:09:52.407Z,100706.81
2023-03-18T06:12:55.863Z,100694.53
2023-03-18T06:16:00.409Z,100694.94
2023-03-18T06:19:06.004Z,100682.16
2023-03-18T06:22:10.057Z,100691.19
2023-03-18T06:25:13.447Z,100698.75
2023-03-18T06:28:16.451Z,100691.19
2023-03-18T06:31:19.282Z,100699.09
2023-03-18T06:34:22.007Z,100701.06
2023-03-18T06:37:24.521Z,100679.53
2023-03-18T06:40:27.502Z,100675.53
2023-03-18T06:43:31.282Z,100673.63
2023-03-18T06:46:33.907Z,100670.19
2023-03-18T06:49:38.267Z,100665.13
2023-03-18T06:52:49.910Z,100670.13
2023-03-18T06:55:59.289Z,100685.75
2023-03-18T06:59:11.059Z,100680.38
2023-03-18T07:02:15.927Z,100689.97
2023-03-18T07:05:20.886Z,100693.47
2023-03-18T07:08:23.838Z,100696.25
2023-03-18T07:11:26.930Z,100697.97
2023-03-18T07:14:30.812Z,100705.50
2023-03-18T07:17:33.995Z,100703.13
2023-03-18T07:20:36.921Z,100708.94
2023-03-18T07:23:39.390Z,100712.75
2023-03-18T07:26:41.765Z,100709.16
2023-03-18T07:29:45.695Z,100705.06
2023-03-18T07:32:48.209Z,100712.13
2023-03-18T07:35:51.250Z,100717.31
2023-03-18T07:38:53.846Z,100725.81
2023-03-18T07:41:56.449Z,100727.22
2023-03-18T07:45:05.974Z,100736.81
2023-03-18T07:48:08.284Z,100728.53
2023-03-18T07:51:10.662Z,100737.38
2023-03-18T07:54:13.001Z,100715.72
2023-03-18T07:57:15.305Z,100747.97
2023-03-18T08:00:18.586Z,100736.19
2023-03-18T08:03:20.953Z,100747.50
2023-03-18T08:06:24.073Z,100739.66
2023-03-18T08:09:27.840Z,100745.63
2023-03-18T08:12:41.597Z,100726.06
2023-03-18T08:15:53.146Z,100735.06
2023-03-18T08:18:55.541Z,100720.69
2023-03-18T08:21:57.890Z,100735.41
2023-03-18T08:25:01.637Z,100725.72
2023-03-18T08:28:07.454Z,100727.44
2023-03-18T08:31:10.433Z,100716.16
2023-03-18T08:34:14.200Z,100725.69
2023-03-18T08:37:16.646Z,100736.22
2023-03-18T08:40:20.504Z,100724.81
2023-03-18T08:43:22.902Z,100733.06
2023-03-18T08:46:25.556Z,100710.47
2023-03-18T08:49:28.350Z,100727.44
2023-03-18T08:52:30.977Z,100729.44
2023-03-18T08:55:37.363Z,100723.94
2023-03-18T08:58:40.066Z,100707.88
2023-03-18T09:01:42.549Z,100717.16
2023-03-18T09:04:45.477Z,100719.44
2023-03-18T09:07:48.767Z,100711.00
2023-03-18T09:10:54.377Z,100711.25
2023-03-18T09:13:56.754Z,100698.63
2023-03-18T09:17:00.005Z,100705.09
2023-03-18T09:20:03.159Z,100705.25
2023-03-18T09:23:05.678Z,100699.31
2023-03-18T09:26:08.077Z,100695.03
2023-03-18T09:29:11.482Z,100690.63
2023-03-18T09:32:13.974Z,100687.31
2023-03-18T09:35:16.647Z,100692.34
2023-03-18T09:38:20.903Z,100679.00
2023-03-18T09:41:25.867Z,100686.22
2023-03-18T09:44:30.970Z,100680.34
2023-03-18T09:47:33.536Z,100671.78
2023-03-18T09:50:51.343Z,100672.38
2023-03-18T09:53:57.479Z,100672.38
2023-03-18T09:56:59.949Z,100678.91
2023-03-18T10:00:09.333Z,100681.16
2023-03-18T10:03:15.912Z,100678.63
2023-03-18T10:06:21.137Z,100673.72
2023-03-18T10:09:39.042Z,100668.88
2023-03-18T10:12:45.464Z,100661.28
2023-03-18T10:15:54.409Z,100657.78
2023-03-18T10:18:57.316Z,100654.56
2023-03-18T10:22:09.653Z,100647.25
2023-03-18T10:25:42.341Z,100645.47
2023-03-18T10:28:54.562Z,100648.41
2023-03-18T10:31:59.666Z,100642.41
2023-03-18T10:35:28.363Z,100639.16
2023-03-18T10:38:51.958Z,100646.81
2023-03-18T10:41:55.503Z,100626.56
2023-03-18T10:45:09.067Z,100642.50
2023-03-18T10:48:21.146Z,100634.56
2023-03-18T10:51:45.428Z,100636.81
2023-03-18T10:54:52.532Z,100643.94
2023-03-18T10:57:55.466Z,100642.84
2023-03-18T11:00:58.457Z,100635.81
2023-03-18T11:04:03.449Z,100636.06
2023-03-18T11:07:08.884Z,100637.97
2023-03-18T11:10:18.261Z,100631.34
2023-03-18T11:13:22.373Z,100636.22
2023-03-18T11:16:34.699Z,100624.78
2023-03-18T11:19:48.874Z,100617.72
2023-03-18T11:22:53.285Z,100615.59
2023-03-18T11:25:55.926Z,100606.63
2023-03-18T11:29:03.290Z,100606.28
2023-03-18T11:32:06.889Z,100604.13
2023-03-18T11:35:20.488Z,100599.22
2023-03-18T11:38:33.512Z,100599.22
2023-03-18T11:41:38.608Z,100583.13
2023-03-18T11:44:41.078Z,100590.81
2023-03-18T11:47:44.115Z,100571.22
2023-03-18T11:51:07.450Z,100578.53
2023-03-18T11:54:21.771Z,100592.16
2023-03-18T11:57:42.618Z,100588.84
2023-03-18T12:01:00.671Z,100594.63
2023-03-18T12:04:23.503Z,100581.22
2023-03-18T12:07:49.694Z,100595.72
2023-03-18T12:10:57.633Z,100592.47
2023-03-18T12:14:18.813Z,100595.19
2023-03-18T12:17:38.889Z,100604.16
2023-03-18T12:20:53.681Z,100593.25
2023-03-18T12:24:02.148Z,100599.78
2023-03-18T12:27:21.007Z,100602.00
2023-03-18T12:30:36.947Z,100593.28
2023-03-18T12:34:01.585Z,100579.38
2023-03-18T12:37:14.120Z,100600.34
2023-03-18T12:40:34.622Z,100590.53
2023-03-18T12:44:01.850Z,100583.97
2023-03-18T12:47:16.238Z,100586.69
2023-03-18T12:50:28.062Z,100567.63
2023-03-18T12:53:40.632Z,100578.81
2023-03-18T12:56:46.242Z,100585.06
2023-03-18T12:59:58.097Z,100577.41
2023-03-18T13:03:13.602Z,100578.25
2023-03-18T13:06:28.759Z,100580.72
2023-03-18T13:09:46.175Z,100578.50
2023-03-18T13:12:52.222Z,100585.59
2023-03-18T13:15:55.317Z,100580.66
2023-03-18T13:18:58.596Z,100580.94
2023-03-18T13:22:23.923Z,100576.03
2023-03-18T13:25:29.125Z,100579.53
2023-03-18T13:29:08.914Z,100574.63
2023-03-18T13:32:24.685Z,100584.16
2023-03-18T13:35:43.674Z,100578.97
2023-03-18T13:38:57.964Z,100574.88
2023-03-18T13:42:22.363Z,100577.94
2023-03-18T13:45:29.433Z,100580.38
2023-03-18T13:48:37.061Z,100568.66
2023-03-18T13:51:40.069Z,100577.34
2023-03-18T13:54:42.836Z,100575.19
2023-03-18T13:58:10.658Z,100580.66
2023-03-18T14:01:24.938Z,100583.91
2023-03-18T14:04:46.096Z,100574.09
2023-03-18T14:07:49.711Z,100564.00
2023-03-18T14:11:17.905Z,100586.84
2023-03-18T14:14:42.467Z,100587.34
2023-03-18T14:17:48.758Z,100581.69
2023-03-18T14:20:55.872Z,100582.22
2023-03-18T14:24:13.175Z,100579.69
2023-03-18T14:27:20.496Z,100581.22
2023-03-18T14:30:34.992Z,100573.03
2023-03-18T14:33:49.440Z,100566.69
2023-03-18T14:36:54.558Z,100569.97
2023-03-18T14:40:01.633Z,100568.47
2023-03-18T14:43:11.363Z,100575.25
2023-03-18T14:46:25.183Z,100575.09
2023-03-18T14:49:36.137Z,100568.88
2023-03-18T14:52:41.147Z,100564.28
2023-03-18T14:55:45.076Z,100560.53
2023-03-18T14:58:48.076Z,100555.38
2023-03-18T15:01:51.327Z,100547.56
2023-03-18T15:04:56.809Z,100561.75
2023-03-18T15:08:00.202Z,100555.53
2023-03-18T15:11:11.924Z,100556.34
2023-03-18T15:14:26.141Z,100553.38
2023-03-18T15:17:28.567Z,100543.34
2023-03-18T15:20:35.660Z,100549.06
2023-03-18T15:23:42.193Z,100550.41
2023-03-18T15:26:44.789Z,100546.88
2023-03-18T15:29:58.413Z,100552.59
2023-03-18T15:33:09.840Z,100543.88
2023-03-18T15:36:16.705Z,100549.34
2023-03-18T15:39:28.896Z,100549.34
2023-03-18T15:42:31.713Z,100546.91
2023-03-18T15:45:34.375Z,100549.34
2023-03-18T15:48:41.679Z,100540.09
2023-03-18T15:51:49.777Z,100536.28
2023-03-18T15:54:52.209Z,100559.44
2023-03-18T15:57:54.581Z,100553.75
2023-03-18T16:00:57.588Z,100546.66
2023-03-18T16:04:00.692Z,100564.09
2023-03-18T16:07:04.460Z,100555.66
2023-03-18T16:10:08.571Z,100554.03
2023-03-18T16:13:18.347Z,100533.28
2023-03-18T16:16:30.644Z,100563.81
2023-03-18T16:19:34.026Z,100559.44
2023-03-18T16:22:36.628Z,100567.56
2023-03-18T16:25:40.289Z,100559.13
2023-03-18T16:28:45.480Z,100565.91
2023-03-18T16:31:49.060Z,100570.53
2023-03-18T16:34:51.542Z,100560.22
2023-03-18T16:37:54.563Z,100567.56
2023-03-18T16:40:57.632Z,100562.94
2023-03-18T16:44:00.542Z,100564.78
2023-03-18T16:47:02.944Z,100564.50
2023-03-18T16:50:22.238Z,100572.69
2023-03-18T16:53:29.751Z,100576.13
2023-03-18T16:56:32.300Z,100578.59
2023-03-18T16:59:36.103Z,100587.84
2023-03-18T17:02:40.885Z,100581.56
2023-03-18T17:05:43.223Z,100579.81
2023-03-18T17:08:45.953Z,100581.22
2023-03-18T17:11:49.173Z,100589.34
2023-03-18T17:14:56.309Z,100584.41
2023-03-18T17:17:59.894Z,100577.59
2023-03-18T17:21:05.523Z,100583.50
2023-03-18T17:24:08.289Z,100584.22
2023-03-18T17:27:13.783Z,100588.75
2023-03-18T17:30:19.266Z,100591.69
2023-03-18T17:33:27.601Z,100589.47
2023-03-18T17:36:32.306Z,100587.69
2023-03-18T17:39:34.707Z,100594.00
2023-03-18T17:42:37.177Z,100587.16
2023-03-18T17:45:39.789Z,100590.13
2023-03-18T17:48:42.256Z,100583.91
2023-03-18T17:51:48.678Z,100590.47
2023-03-18T17:54:51.303Z,100599.25
2023-03-18T17:57:53.641Z,100602.03
2023-03-18T18:01:09.556Z,100603.94
2023-03-18T18:04:23.174Z,100606.53
2023-03-18T18:07:25.547Z,100610.94
2023-03-18T18:10:27.924Z,100612.56
2023-03-18T18:13:30.634Z,100608.47
2023-03-18T18:16:32.933Z,100617.19
2023-03-18T18:19:36.240Z,100612.72
2023-03-18T18:22:39.416Z,100613.66
2023-03-18T18:25:41.723Z,100607.56
2023-03-18T18:28:46.640Z,100618.09
2023-03-18T18:31:49.074Z,100612.91
2023-03-18T18:34:51.458Z,100610.13
2023-03-18T18:37:54.194Z,100604.03
2023-03-18T18:40:57.916Z,100613.16
2023-03-18T18:44:00.572Z,100604.19
2023-03-18T18:47:03.162Z,100603.78
2023-03-18T18:50:06.624Z,100594.91
2023-03-18T18:53:23.079Z,100591.44
2023-03-18T18:56:34.886Z,100606.50
2023-03-18T18:59:37.638Z,100599.94
2023-03-18T19:02:39.992Z,100613.16
2023-03-18T19:05:44.465Z,100588.34
2023-03-18T19:08:47.332Z,100611.16
2023-03-18T19:11:50.388Z,100605.16
2023-03-18T19:14:52.937Z,100616.81
2023-03-18T19:17:55.339Z,100607.41
2023-03-18T19:20:58.438Z,100621.66
2023-03-18T19:24:01.228Z,100606.69
2023-03-18T19:27:14.730Z,100608.75
2023-03-18T19:30:22.881Z,100609.53
2023-03-18T19:33:25.853Z,100607.00
2023-03-18T19:36:31.629Z,100618.66
2023-03-18T19:39:34.192Z,100620.19
2023-03-18T19:42:36.867Z,100616.84
2023-03-18T19:45:41.170Z,100621.50
2023-03-18T19:48:43.664Z,100611.06
2023-03-18T19:51:46.507Z,100617.34
2023-03-18T19:54:49.856Z,100622.63
2023-03-18T19:57:53.255Z,100619.84
2023-03-18T20:00:56.348Z,100615.41
2023-03-18T20:03:59.546Z,100620.53
2023-03-18T20:07:03.917Z,100626.63
2023-03-18T20:10:08.757Z,100629.31
2023-03-18T20:13:17.757Z,100634.22
2023-03-18T20:16:21.781Z,100626.28
2023-03-18T20:19:24.188Z,100622.03
2023-03-18T20:22:30.699Z,100621.34
2023-03-18T20:25:41.237Z,100618.09
2023-03-18T20:28:45.753Z,100614.94
2023-03-18T20:31:48.479Z,100626.75
2023-03-18T20:34:51.336Z,100617.16
2023-03-18T20:37:54.081Z,100618.41
2023-03-18T20:40:57.176Z,100620.25
2023-03-18T20:43:59.461Z,100622.72
2023-03-18T20:47:01.706Z,100617.19
2023-03-18T20:50:04.679Z,100626.31
2023-03-18T20:53:15.344Z,100615.28
2023-03-18T20:56:22.683Z,100618.19
2023-03-18T20:59:25.315Z,100605.25
2023-03-18T21:02:29.943Z,100612.00
2023-03-18T21:05:32.563Z,100604.94
2023-03-18T21:08:35.054Z,100598.91
2023-03-18T21:11:38.132Z,100605.16
2023-03-18T21:14:40.484Z,100598.97
2023-03-18T21:17:43.998Z,100616.84
2023-03-18T21:20:46.748Z,100617.22
2023-03-18T21:23:49.299Z,100601.97
2023-03-18T21:27:03.785Z,100611.28
2023-03-18T21:30:10.265Z,100609.16
2023-03-18T21:33:26.295Z,100610.31
2023-03-18T21:36:28.863Z,100600.78
2023-03-18T21:39:31.115Z,100599.38
2023-03-18T21:42:34.142Z,100609.03
2023-03-18T21:45:36.518Z,100608.53
2023-03-18T21:48:38.859Z,100604.44
2023-03-18T21:51:41.944Z,100600.06
2023-03-18T21:54:44.428Z,100602.31
2023-03-18T21:57:48.863Z,100587.75
2023-03-18T22:00:53.924Z,100601.97
2023-03-18T22:03:56.434Z,100598.59
2023-03-18T22:06:58.760Z,100600.00
2023-03-18T22:10:01.279Z,100593.75
2023-03-18T22:13:16.668Z,100592.91
2023-03-18T22:16:19.093Z,100597.28
2023-03-18T22:19:21.679Z,100598.53
2023-03-18T22:22:26.305Z,100599.00
2023-03-18T22:25:34.284Z,100593.66
2023-03-18T22:28:36.833Z,100581.28
2023-03-18T22:31:39.749Z,100592.59
2023-03-18T22:34:42.042Z,100590.81
2023-03-18T22:37:45.190Z,100586.44
2023-03-18T22:40:50.030Z,100586.00
2023-03-18T22:43:52.509Z,100587.53
2023-03-18T22:46:54.941Z,100592.81
2023-03-18T22:49:57.356Z,100584.13
2023-03-18T22:53:05.539Z,100584.50
2023-03-18T22:56:11.450Z,100585.69
2023-03-18T22:59:14.489Z,100582.00
2023-03-18T23:02:21.961Z,100578.69
2023-03-18T23:05:24.435Z,100581.81
2023-03-18T23:08:27.786Z,100589.81
2023-03-18T23:11:31.145Z,100589.28
2023-03-18T23:14:33.497Z,100597.88
2023-03-18T23:17:35.818Z,100602.38
2023-03-18T23:20:38.196Z,100603.91
2023-03-18T23:23:40.558Z,100592.03
2023-03-18T23:26:42.862Z,100598.25
2023-03-18T23:29:45.344Z,100595.44
2023-03-18T23:32:47.732Z,100598.25
2023-03-18T23:35:50.076Z,100587.22
2023-03-18T23:38:52.507Z,100596.25
2023-03-18T23:41:54.912Z,100592.50
2023-03-18T23:44:57.364Z,100591.56
2023-03-18T23:47:59.693Z,100598.50
2023-03-18T23:51:02.343Z,100590.28
2023-03-18T23:54:05.400Z,100593.09
2023-03-18T23:57:09.643Z,100586.75
